Time;durP1;ratioP1;P1;durP2;ratioP2;P2;SDS_P1;SDS_P2;PMS_P1;PMS_P2;Temp;Humidity;BMP_temperature;BMP_pressure;BME280_temperature;BME280_humidity;BME280_pressure;Samples;Min_cycle;Max_cycle;Signal;HPM_P1;HPM_P2
2022/01/20 00:00:21;;;;;;;150.97;69.07;;;;;;;;;;4420711;32;20279;-55
2022/01/20 00:02:55;;;;;;;152.70;66.37;;;;;;;;;;4431405;32;20330;-56
2022/01/20 00:27:23;;;;;;;116.43;54.10;;;;;;;;;;4438246;32;20380;-51
2022/01/20 00:32:19;;;;;;;124.10;54.33;;;;;;;;;;4438803;32;20568;-51
2022/01/20 00:37:27;;;;;;;140.73;65.07;;;;;;;;;;4437682;32;20343;-49
2022/01/20 00:39:53;;;;;;;139.47;65.97;;;;;;;;;;4421909;32;20288;-51
2022/01/20 00:42:20;;;;;;;154.00;64.27;;;;;;;;;;4438119;32;20688;-51
2022/01/20 00:44:46;;;;;;;136.20;61.33;;;;;;;;;;4422104;32;20295;-50
2022/01/20 00:47:13;;;;;;;148.43;70.07;;;;;;;;;;4432206;32;20224;-51
2022/01/20 00:49:39;;;;;;;121.67;60.63;;;;;;;;;;4437963;32;20615;-53
2022/01/20 00:52:05;;;;;;;121.23;57.83;;;;;;;;;;4422625;32;20295;-52
2022/01/20 00:54:31;;;;;;;137.23;62.57;;;;;;;;;;4442769;32;20345;-51
2022/01/20 00:56:57;;;;;;;150.57;61.90;;;;;;;;;;4421967;32;20299;-53
2022/01/20 00:59:22;;;;;;;147.37;62.83;;;;;;;;;;4430315;32;20328;-51
2022/01/20 01:01:48;;;;;;;128.80;60.07;;;;;;;;;;4431960;32;20314;-51
2022/01/20 01:04:14;;;;;;;126.97;62.03;;;;;;;;;;4446053;32;20263;-51
2022/01/20 01:09:06;;;;;;;130.63;59.33;;;;;;;;;;4444336;32;20338;-51
2022/01/20 01:11:33;;;;;;;175.30;74.37;;;;;;;;;;4447341;32;20748;-53
2022/01/20 01:14:00;;;;;;;183.03;84.07;;;;;;;;;;4421918;32;20225;-51
2022/01/20 01:16:37;;;;;;;240.83;102.17;;;;;;;;;;4431607;32;20647;-53
2022/01/20 01:22:02;;;;;;;263.33;108.37;;;;;;;;;;4432055;32;20583;-51
2022/01/20 01:24:28;;;;;;;245.13;110.87;;;;;;;;;;4431480;32;20196;-52
2022/01/20 01:26:53;;;;;;;247.93;103.37;;;;;;;;;;4445181;32;20271;-52
2022/01/20 01:29:49;;;;;;;253.13;108.43;;;;;;;;;;4441200;32;20374;-52
2022/01/20 01:32:07;;;;;;;238.93;104.40;;;;;;;;;;4445155;32;20625;-51
2022/01/20 01:34:35;;;;;;;217.37;99.17;;;;;;;;;;4417474;32;20268;-51
2022/01/20 01:39:26;;;;;;;207.50;94.57;;;;;;;;;;4416960;32;20261;-50
2022/01/20 01:41:52;;;;;;;193.63;89.80;;;;;;;;;;4431716;32;20292;-52
2022/01/20 01:44:27;;;;;;;201.47;87.20;;;;;;;;;;4445610;32;20240;-51
2022/01/20 01:46:54;;;;;;;190.27;87.37;;;;;;;;;;4432950;32;20248;-51
2022/01/20 01:49:20;;;;;;;193.67;87.73;;;;;;;;;;4431015;32;20296;-50
2022/01/20 01:51:46;;;;;;;201.73;83.50;;;;;;;;;;4440839;32;20220;-52
2022/01/20 01:54:14;;;;;;;203.87;82.47;;;;;;;;;;4417840;32;20278;-52
2022/01/20 01:56:40;;;;;;;195.70;80.97;;;;;;;;;;4431669;32;20295;-52
2022/01/20 01:59:06;;;;;;;185.10;82.70;;;;;;;;;;4432281;32;20295;-52
2022/01/20 02:01:35;;;;;;;158.47;71.07;;;;;;;;;;4447221;32;20279;-52
2022/01/20 02:04:11;;;;;;;125.27;60.43;;;;;;;;;;4431038;32;20250;-52
2022/01/20 02:20:21;;;;;;;169.83;78.13;;;;;;;;;;4431371;32;20240;-51
2022/01/20 02:22:47;;;;;;;170.13;73.73;;;;;;;;;;4436340;32;20233;-50
2022/01/20 02:25:19;;;;;;;151.03;66.33;;;;;;;;;;4431682;32;20275;-50
2022/01/20 02:27:45;;;;;;;151.20;66.10;;;;;;;;;;4441593;32;20331;-51
2022/01/20 02:30:11;;;;;;;145.60;62.43;;;;;;;;;;4430855;32;20313;-51
2022/01/20 02:32:37;;;;;;;151.00;63.47;;;;;;;;;;4417206;32;20232;-50
2022/01/20 02:35:07;;;;;;;125.90;58.70;;;;;;;;;;4431753;32;20255;-51
2022/01/20 02:37:32;;;;;;;146.97;61.87;;;;;;;;;;4434742;32;20248;-51
2022/01/20 02:40:28;;;;;;;126.73;57.83;;;;;;;;;;4447090;32;20280;-53
2022/01/20 02:45:30;;;;;;;126.97;59.20;;;;;;;;;;4432245;32;20227;-50
2022/01/20 02:47:55;;;;;;;137.90;61.73;;;;;;;;;;4426037;32;20236;-51
2022/01/20 02:50:21;;;;;;;117.47;55.60;;;;;;;;;;4449639;32;20271;-51
2022/01/20 02:52:47;;;;;;;112.13;55.97;;;;;;;;;;4439569;32;20360;-51
2022/01/20 02:55:12;;;;;;;117.40;56.77;;;;;;;;;;4434860;32;20683;-51
2022/01/20 02:57:37;;;;;;;124.10;57.53;;;;;;;;;;4445199;32;20236;-50
2022/01/20 03:00:06;;;;;;;120.53;54.63;;;;;;;;;;4435432;32;20298;-50
2022/01/20 03:02:31;;;;;;;105.30;52.47;;;;;;;;;;4445520;32;20608;-51
2022/01/20 03:04:57;;;;;;;107.17;48.73;;;;;;;;;;4434147;32;20570;-53
2022/01/20 03:07:22;;;;;;;119.67;53.40;;;;;;;;;;4419364;32;20284;-53
2022/01/20 03:09:48;;;;;;;117.27;56.10;;;;;;;;;;4433563;32;20280;-51
2022/01/20 03:12:13;;;;;;;120.97;51.73;;;;;;;;;;4432652;32;20367;-52
2022/01/20 03:14:39;;;;;;;118.33;52.83;;;;;;;;;;4433301;32;20666;-51
2022/01/20 03:17:04;;;;;;;135.90;56.40;;;;;;;;;;4433917;32;20268;-51
2022/01/20 03:19:31;;;;;;;131.63;58.63;;;;;;;;;;4448383;32;20306;-52
2022/01/20 03:21:56;;;;;;;136.87;58.57;;;;;;;;;;4448283;32;20452;-52
2022/01/20 03:24:22;;;;;;;124.00;55.40;;;;;;;;;;4433066;32;20285;-52
2022/01/20 03:26:47;;;;;;;127.90;56.03;;;;;;;;;;4433229;32;20291;-52
2022/01/20 03:29:13;;;;;;;115.30;51.03;;;;;;;;;;4432425;32;20353;-50
2022/01/20 03:31:39;;;;;;;122.60;56.60;;;;;;;;;;4419078;32;20340;-52
2022/01/20 03:34:06;;;;;;;120.60;56.40;;;;;;;;;;4418348;32;20228;-53
2022/01/20 03:36:31;;;;;;;126.47;52.83;;;;;;;;;;4432912;32;20228;-53
2022/01/20 03:38:57;;;;;;;106.57;50.17;;;;;;;;;;4444890;32;20274;-52
2022/01/20 03:41:22;;;;;;;103.40;48.73;;;;;;;;;;4448529;32;20674;-52
2022/01/20 03:43:48;;;;;;;112.63;52.43;;;;;;;;;;4436247;32;20636;-52
2022/01/20 03:46:17;;;;;;;99.47;49.83;;;;;;;;;;4432955;32;20423;-51
2022/01/20 03:49:35;;;;;;;113.80;50.03;;;;;;;;;;4432281;32;20664;-52
2022/01/20 03:51:34;;;;;;;118.73;51.07;;;;;;;;;;4427426;32;20224;-52
2022/01/20 03:54:00;;;;;;;110.77;52.03;;;;;;;;;;4447569;32;20777;-51
2022/01/20 03:56:26;;;;;;;114.63;55.57;;;;;;;;;;4448162;32;20294;-52
2022/01/20 03:58:52;;;;;;;119.47;52.57;;;;;;;;;;4429267;32;20264;-51
2022/01/20 04:01:18;;;;;;;94.80;44.27;;;;;;;;;;4447833;32;20399;-52
2022/01/20 04:03:44;;;;;;;105.73;50.07;;;;;;;;;;4436470;32;20675;-51
2022/01/20 04:06:10;;;;;;;92.67;45.80;;;;;;;;;;4432642;32;20288;-52
2022/01/20 04:08:39;;;;;;;102.27;45.07;;;;;;;;;;4440551;32;20295;-51
2022/01/20 04:11:19;;;;;;;89.27;41.77;;;;;;;;;;4438592;32;20284;-52
2022/01/20 04:13:45;;;;;;;90.53;42.40;;;;;;;;;;4435572;32;20267;-51
2022/01/20 04:16:18;;;;;;;93.10;43.70;;;;;;;;;;4440811;32;20309;-53
2022/01/20 04:18:52;;;;;;;104.07;45.47;;;;;;;;;;4446618;32;20220;-51
2022/01/20 04:21:25;;;;;;;79.60;38.57;;;;;;;;;;4447697;32;20244;-52
2022/01/20 04:23:52;;;;;;;75.43;36.43;;;;;;;;;;4447533;32;20216;-51
2022/01/20 04:26:18;;;;;;;87.17;39.23;;;;;;;;;;4418565;32;20221;-53
2022/01/20 04:28:44;;;;;;;73.80;35.87;;;;;;;;;;4430683;32;20366;-53
2022/01/20 04:31:09;;;;;;;75.67;34.93;;;;;;;;;;4442974;32;20329;-50
2022/01/20 04:33:35;;;;;;;70.27;36.63;;;;;;;;;;4432380;32;20627;-50
2022/01/20 04:36:01;;;;;;;76.60;36.20;;;;;;;;;;4417584;32;20705;-50
2022/01/20 04:38:26;;;;;;;87.20;39.97;;;;;;;;;;4432222;32;20224;-51
2022/01/20 04:40:52;;;;;;;81.83;38.30;;;;;;;;;;4431874;32;20314;-51
2022/01/20 04:43:19;;;;;;;88.00;41.27;;;;;;;;;;4432015;32;20268;-50
2022/01/20 04:45:51;;;;;;;83.17;41.97;;;;;;;;;;4430947;32;20670;-50
2022/01/20 04:58:58;;;;;;;92.30;47.13;;;;;;;;;;4446934;32;20267;-50
2022/01/20 05:01:24;;;;;;;118.77;57.40;;;;;;;;;;4424697;32;20316;-50
2022/01/20 05:03:49;;;;;;;134.50;60.30;;;;;;;;;;4417461;32;20672;-50
2022/01/20 05:06:15;;;;;;;150.10;64.00;;;;;;;;;;4430866;32;20276;-52
2022/01/20 05:08:40;;;;;;;162.37;76.97;;;;;;;;;;4431062;32;20259;-51
2022/01/20 05:11:06;;;;;;;111.43;51.17;;;;;;;;;;4436814;32;20711;-54
2022/01/20 05:13:34;;;;;;;85.73;42.67;;;;;;;;;;4443543;32;20381;-50
2022/01/20 05:16:01;;;;;;;77.87;39.70;;;;;;;;;;4446688;32;20305;-51
2022/01/20 05:18:27;;;;;;;73.07;40.93;;;;;;;;;;4446927;32;20676;-51
2022/01/20 05:20:52;;;;;;;83.53;44.30;;;;;;;;;;4447272;32;20370;-52
2022/01/20 05:23:18;;;;;;;117.57;58.93;;;;;;;;;;4434841;32;20212;-51
2022/01/20 05:25:44;;;;;;;131.33;63.93;;;;;;;;;;4431150;32;20659;-53
2022/01/20 05:28:10;;;;;;;132.63;64.37;;;;;;;;;;4431411;32;20304;-53
2022/01/20 05:30:36;;;;;;;171.07;70.80;;;;;;;;;;4431291;32;20730;-53
2022/01/20 05:33:02;;;;;;;117.47;61.67;;;;;;;;;;4429904;32;20306;-53
2022/01/20 05:35:28;;;;;;;143.90;65.30;;;;;;;;;;4416422;32;20308;-53
2022/01/20 05:37:54;;;;;;;179.67;81.67;;;;;;;;;;4431057;32;20228;-53
2022/01/20 05:40:20;;;;;;;191.50;84.13;;;;;;;;;;4431327;32;20392;-52
2022/01/20 05:42:46;;;;;;;159.27;79.67;;;;;;;;;;4437483;32;20350;-53
2022/01/20 05:45:12;;;;;;;154.23;71.93;;;;;;;;;;4446261;32;20404;-51
2022/01/20 05:47:44;;;;;;;142.80;70.23;;;;;;;;;;4433415;32;20220;-51
2022/01/20 05:50:20;;;;;;;156.83;73.20;;;;;;;;;;4432613;32;20449;-52
2022/01/20 05:52:46;;;;;;;157.87;71.87;;;;;;;;;;4416797;32;20755;-52
2022/01/20 05:55:18;;;;;;;172.13;74.37;;;;;;;;;;4431110;32;20231;-51
2022/01/20 05:57:46;;;;;;;162.50;72.20;;;;;;;;;;4434568;32;20259;-52
2022/01/20 06:00:15;;;;;;;140.63;65.07;;;;;;;;;;4436829;32;20367;-52
2022/01/20 06:05:25;;;;;;;202.20;94.27;;;;;;;;;;4430176;32;20682;-51
2022/01/20 06:07:51;;;;;;;196.60;90.27;;;;;;;;;;4439800;32;20288;-52
2022/01/20 06:10:17;;;;;;;172.63;80.03;;;;;;;;;;4431074;32;20638;-52
2022/01/20 06:12:42;;;;;;;168.87;85.00;;;;;;;;;;4416534;32;20404;-52
2022/01/20 06:15:13;;;;;;;120.30;61.03;;;;;;;;;;4442938;32;20690;-52
2022/01/20 06:17:39;;;;;;;164.97;78.20;;;;;;;;;;4415522;32;20781;-51
2022/01/20 06:20:07;;;;;;;170.37;80.53;;;;;;;;;;4416457;32;20353;-52
2022/01/20 06:22:32;;;;;;;142.97;71.73;;;;;;;;;;4418931;32;20291;-50
2022/01/20 06:24:58;;;;;;;166.37;81.50;;;;;;;;;;4433881;32;20276;-50
2022/01/20 06:27:23;;;;;;;192.70;93.87;;;;;;;;;;4432291;32;20566;-52
2022/01/20 06:29:49;;;;;;;203.27;102.30;;;;;;;;;;4435959;32;20389;-52
2022/01/20 06:32:15;;;;;;;162.57;85.77;;;;;;;;;;4434504;32;20310;-51
2022/01/20 06:34:40;;;;;;;157.40;81.60;;;;;;;;;;4447081;32;20225;-52
2022/01/20 06:37:06;;;;;;;178.17;90.77;;;;;;;;;;4445215;32;20232;-50
2022/01/20 06:39:31;;;;;;;223.37;110.03;;;;;;;;;;4445988;32;20563;-50
2022/01/20 06:41:57;;;;;;;215.10;104.80;;;;;;;;;;4420930;32;20315;-51
2022/01/20 06:44:22;;;;;;;274.77;132.00;;;;;;;;;;4432534;32;20248;-55
2022/01/20 06:46:49;;;;;;;226.37;112.73;;;;;;;;;;4420531;32;20382;-55
2022/01/20 06:49:17;;;;;;;220.77;113.17;;;;;;;;;;4448233;32;20640;-54
2022/01/20 06:51:44;;;;;;;213.63;107.07;;;;;;;;;;4448303;32;20271;-52
2022/01/20 06:54:10;;;;;;;223.97;113.00;;;;;;;;;;4448901;32;20475;-50
2022/01/20 06:56:36;;;;;;;234.17;115.43;;;;;;;;;;4420078;32;20328;-53
2022/01/20 06:59:01;;;;;;;238.80;119.03;;;;;;;;;;4432209;32;20652;-51
2022/01/20 07:01:27;;;;;;;228.10;112.30;;;;;;;;;;4435816;32;20300;-52
2022/01/20 07:03:52;;;;;;;168.33;93.83;;;;;;;;;;4435738;32;20645;-51
2022/01/20 07:06:18;;;;;;;199.87;97.30;;;;;;;;;;4434356;32;20324;-54
2022/01/20 07:08:43;;;;;;;183.57;93.33;;;;;;;;;;4434433;32;20592;-52
2022/01/20 07:11:09;;;;;;;169.30;94.63;;;;;;;;;;4426429;32;20368;-51
2022/01/20 07:13:35;;;;;;;221.77;114.63;;;;;;;;;;4432565;32;20534;-50
2022/01/20 07:16:02;;;;;;;220.33;109.87;;;;;;;;;;4443190;32;20334;-50
2022/01/20 07:18:27;;;;;;;190.13;103.47;;;;;;;;;;4436151;32;20658;-51
2022/01/20 07:20:53;;;;;;;209.27;103.20;;;;;;;;;;4418580;32;20295;-53
2022/01/20 07:23:19;;;;;;;171.50;93.20;;;;;;;;;;4430714;32;20337;-51
2022/01/20 07:25:44;;;;;;;173.17;87.40;;;;;;;;;;4430452;32;20769;-51
2022/01/20 07:28:10;;;;;;;186.17;95.00;;;;;;;;;;4443179;32;20663;-50
2022/01/20 07:30:35;;;;;;;167.13;90.33;;;;;;;;;;4433165;32;20605;-51
2022/01/20 07:33:03;;;;;;;166.33;87.90;;;;;;;;;;4441186;32;20361;-53
2022/01/20 07:35:29;;;;;;;177.83;92.07;;;;;;;;;;4445814;32;20315;-52
2022/01/20 07:37:55;;;;;;;172.53;91.57;;;;;;;;;;4427697;32;20669;-52
2022/01/20 07:40:21;;;;;;;206.80;94.60;;;;;;;;;;4432641;32;20355;-52
2022/01/20 07:42:46;;;;;;;187.13;96.23;;;;;;;;;;4432760;32;20303;-52
2022/01/20 07:45:12;;;;;;;169.97;94.60;;;;;;;;;;4438022;32;20208;-52
2022/01/20 07:47:37;;;;;;;150.53;84.53;;;;;;;;;;4431879;32;20225;-53
2022/01/20 07:50:04;;;;;;;142.17;79.23;;;;;;;;;;4416127;32;20247;-52
2022/01/20 07:52:29;;;;;;;175.40;90.30;;;;;;;;;;4445661;32;20217;-53
2022/01/20 07:54:55;;;;;;;155.83;84.50;;;;;;;;;;4444499;32;20283;-52
2022/01/20 07:57:20;;;;;;;175.70;86.90;;;;;;;;;;4445293;32;20239;-52
2022/01/20 07:59:46;;;;;;;163.37;83.90;;;;;;;;;;4442483;32;20303;-54
2022/01/20 08:02:11;;;;;;;133.83;74.53;;;;;;;;;;4444263;32;20384;-53
2022/01/20 08:04:37;;;;;;;138.40;67.50;;;;;;;;;;4430613;32;20626;-53
2022/01/20 08:07:02;;;;;;;144.40;70.20;;;;;;;;;;4431440;32;20335;-57
2022/01/20 08:09:28;;;;;;;119.47;69.20;;;;;;;;;;4434485;32;20258;-54
2022/01/20 08:11:53;;;;;;;107.40;63.00;;;;;;;;;;4447068;32;20340;-52
2022/01/20 08:14:19;;;;;;;132.33;63.67;;;;;;;;;;4434228;32;20308;-52
2022/01/20 08:16:44;;;;;;;128.70;68.97;;;;;;;;;;4446818;32;20260;-55
2022/01/20 08:19:09;;;;;;;122.40;67.50;;;;;;;;;;4421973;32;20323;-52
2022/01/20 08:21:35;;;;;;;127.03;62.93;;;;;;;;;;4432265;32;20322;-53
2022/01/20 08:24:00;;;;;;;123.97;67.10;;;;;;;;;;4447662;32;20278;-52
2022/01/20 08:26:26;;;;;;;131.63;66.50;;;;;;;;;;4439880;32;20241;-53
2022/01/20 08:28:51;;;;;;;132.40;70.83;;;;;;;;;;4433445;32;20725;-54
2022/01/20 08:31:17;;;;;;;144.47;72.67;;;;;;;;;;4440943;32;20686;-52
2022/01/20 08:33:42;;;;;;;126.83;66.83;;;;;;;;;;4440722;32;20229;-53
2022/01/20 08:36:08;;;;;;;130.77;69.17;;;;;;;;;;4446890;32;20323;-53
2022/01/20 08:38:33;;;;;;;139.30;70.33;;;;;;;;;;4430066;32;20271;-52
2022/01/20 08:40:59;;;;;;;149.13;71.53;;;;;;;;;;4447290;32;20307;-52
2022/01/20 08:43:24;;;;;;;120.87;66.90;;;;;;;;;;4432305;32;20783;-52
2022/01/20 08:45:50;;;;;;;123.93;65.03;;;;;;;;;;4440611;32;20287;-52
2022/01/20 08:48:16;;;;;;;136.47;69.23;;;;;;;;;;4447556;32;20259;-53
2022/01/20 08:50:43;;;;;;;122.67;66.23;;;;;;;;;;4445629;32;20377;-52
2022/01/20 08:53:09;;;;;;;118.00;62.37;;;;;;;;;;4432875;32;20237;-52
2022/01/20 08:55:35;;;;;;;123.50;61.10;;;;;;;;;;4446794;32;20362;-53
2022/01/20 08:58:01;;;;;;;178.23;79.60;;;;;;;;;;4446723;32;20224;-52
2022/01/20 09:00:29;;;;;;;107.97;58.17;;;;;;;;;;4446808;32;20645;-53
2022/01/20 09:02:55;;;;;;;92.27;50.83;;;;;;;;;;4447340;32;20288;-53
2022/01/20 09:05:21;;;;;;;170.20;82.57;;;;;;;;;;4440233;32;20310;-54
2022/01/20 09:07:46;;;;;;;137.43;66.13;;;;;;;;;;4437675;32;20482;-53
2022/01/20 09:10:19;;;;;;;114.90;62.57;;;;;;;;;;4431289;32;20255;-52
2022/01/20 09:15:31;;;;;;;99.17;48.60;;;;;;;;;;4445067;32;20633;-52
2022/01/20 09:18:08;;;;;;;73.20;38.67;;;;;;;;;;4439679;32;20224;-52
2022/01/20 09:20:35;;;;;;;110.10;50.47;;;;;;;;;;4433504;32;20352;-53
2022/01/20 09:23:02;;;;;;;82.23;45.87;;;;;;;;;;4445226;32;20602;-52
2022/01/20 09:25:28;;;;;;;100.63;53.83;;;;;;;;;;4431650;32;20307;-53
2022/01/20 09:27:55;;;;;;;62.40;37.50;;;;;;;;;;4432373;32;20714;-52
2022/01/20 09:30:22;;;;;;;77.33;38.13;;;;;;;;;;4447299;32;20277;-53
2022/01/20 09:32:58;;;;;;;61.77;34.03;;;;;;;;;;4446601;32;20269;-52
2022/01/20 09:35:29;;;;;;;62.10;33.67;;;;;;;;;;4432185;32;20687;-52
2022/01/20 09:37:54;;;;;;;60.20;27.53;;;;;;;;;;4432643;32;20220;-52
2022/01/20 09:40:20;;;;;;;70.57;31.70;;;;;;;;;;4446042;32;20307;-53
2022/01/20 09:42:45;;;;;;;61.03;30.90;;;;;;;;;;4439543;32;20350;-52
2022/01/20 09:45:11;;;;;;;59.13;30.53;;;;;;;;;;4431285;32;20726;-51
2022/01/20 09:47:37;;;;;;;54.20;28.40;;;;;;;;;;4446001;32;20244;-53
2022/01/20 09:50:04;;;;;;;68.03;30.23;;;;;;;;;;4446520;32;20235;-52
2022/01/20 09:52:30;;;;;;;67.87;31.57;;;;;;;;;;4435108;32;20258;-51
2022/01/20 09:54:55;;;;;;;47.43;27.30;;;;;;;;;;4424913;32;20324;-52
2022/01/20 09:57:21;;;;;;;42.60;25.77;;;;;;;;;;4448397;32;20468;-51
2022/01/20 09:59:48;;;;;;;50.53;28.43;;;;;;;;;;4437098;32;20283;-52
2022/01/20 10:02:18;;;;;;;44.87;23.07;;;;;;;;;;4435413;32;20317;-52
2022/01/20 10:04:44;;;;;;;35.67;20.63;;;;;;;;;;4439179;32;20259;-52
2022/01/20 10:07:13;;;;;;;44.63;20.90;;;;;;;;;;4434968;32;20371;-52
2022/01/20 10:09:42;;;;;;;35.10;18.43;;;;;;;;;;4442155;32;20598;-53
2022/01/20 10:12:10;;;;;;;34.60;18.33;;;;;;;;;;4443003;32;20683;-51
2022/01/20 10:14:53;;;;;;;37.20;19.93;;;;;;;;;;4433847;32;20237;-51
2022/01/20 10:17:26;;;;;;;41.90;21.30;;;;;;;;;;4435080;32;20220;-52
2022/01/20 10:19:54;;;;;;;37.10;21.77;;;;;;;;;;4448680;32;20216;-52
2022/01/20 10:22:23;;;;;;;42.23;20.33;;;;;;;;;;4426325;32;20347;-54
2022/01/20 10:25:02;;;;;;;43.13;19.83;;;;;;;;;;4449182;32;20220;-51
2022/01/20 10:27:32;;;;;;;34.37;21.57;;;;;;;;;;4448519;32;20284;-52
2022/01/20 10:30:07;;;;;;;42.83;21.67;;;;;;;;;;4421433;32;20224;-52
2022/01/20 10:32:51;;;;;;;36.77;20.60;;;;;;;;;;4441930;32;20305;-52
2022/01/20 10:35:23;;;;;;;42.70;22.67;;;;;;;;;;4434293;32;20213;-53
2022/01/20 10:37:58;;;;;;;43.93;21.23;;;;;;;;;;4434262;32;20356;-52
2022/01/20 10:40:23;;;;;;;36.93;20.03;;;;;;;;;;4437262;32;20263;-53
2022/01/20 10:42:49;;;;;;;33.63;18.90;;;;;;;;;;4433572;32;20672;-54
2022/01/20 10:45:32;;;;;;;26.57;15.63;;;;;;;;;;4448887;32;20336;-53
2022/01/20 10:48:00;;;;;;;27.27;16.17;;;;;;;;;;4420812;32;20309;-53
2022/01/20 10:50:32;;;;;;;26.57;15.10;;;;;;;;;;4449161;32;20213;-53
2022/01/20 10:52:57;;;;;;;52.43;23.60;;;;;;;;;;4447782;32;20676;-51
2022/01/20 10:55:31;;;;;;;31.93;15.93;;;;;;;;;;4439396;32;20301;-52
2022/01/20 10:58:28;;;;;;;32.97;16.87;;;;;;;;;;4434929;32;20244;-54
2022/01/20 11:00:56;;;;;;;21.93;15.30;;;;;;;;;;4430381;32;20372;-52
2022/01/20 11:03:27;;;;;;;33.53;20.40;;;;;;;;;;4437143;32;20644;-51
2022/01/20 11:05:54;;;;;;;35.17;18.97;;;;;;;;;;4443789;32;20763;-53
2022/01/20 11:08:20;;;;;;;28.67;16.40;;;;;;;;;;4436306;32;20596;-53
2022/01/20 11:10:46;;;;;;;38.53;20.17;;;;;;;;;;4447118;32;20971;-51
2022/01/20 11:13:19;;;;;;;31.30;16.77;;;;;;;;;;4436000;32;20316;-52
2022/01/20 11:15:45;;;;;;;45.17;20.27;;;;;;;;;;4407664;32;20294;-52
2022/01/20 11:18:13;;;;;;;38.50;18.70;;;;;;;;;;4446105;32;20259;-53
2022/01/20 11:20:44;;;;;;;33.97;20.70;;;;;;;;;;4419590;32;20685;-53
2022/01/20 11:23:10;;;;;;;43.67;22.33;;;;;;;;;;4447469;32;20425;-53
2022/01/20 11:25:39;;;;;;;34.80;20.23;;;;;;;;;;4434090;32;20321;-52
2022/01/20 11:28:09;;;;;;;35.40;20.53;;;;;;;;;;4447992;32;20398;-52
2022/01/20 11:30:39;;;;;;;41.70;23.10;;;;;;;;;;4446225;32;20351;-53
2022/01/20 11:33:10;;;;;;;37.07;19.33;;;;;;;;;;4433534;32;20788;-52
2022/01/20 11:35:42;;;;;;;33.03;20.57;;;;;;;;;;4438321;32;20402;-53
2022/01/20 11:38:10;;;;;;;48.90;26.37;;;;;;;;;;4418962;32;20665;-53
2022/01/20 11:40:48;;;;;;;35.80;21.80;;;;;;;;;;4434078;32;20237;-52
2022/01/20 11:43:14;;;;;;;45.53;24.43;;;;;;;;;;4448849;32;20212;-53
2022/01/20 11:45:47;;;;;;;51.93;28.10;;;;;;;;;;4446795;32;20834;-54
2022/01/20 11:48:17;;;;;;;52.07;27.17;;;;;;;;;;4447201;32;20262;-52
2022/01/20 11:50:44;;;;;;;39.90;24.43;;;;;;;;;;4436966;32;20293;-52
2022/01/20 11:53:16;;;;;;;34.73;21.10;;;;;;;;;;4447726;32;20307;-53
2022/01/20 11:55:53;;;;;;;43.07;24.30;;;;;;;;;;4443926;32;20229;-52
2022/01/20 11:58:21;;;;;;;32.07;20.03;;;;;;;;;;4447986;32;20267;-52
2022/01/20 12:01:09;;;;;;;33.77;18.90;;;;;;;;;;4445621;32;20348;-53
2022/01/20 12:03:48;;;;;;;35.97;21.57;;;;;;;;;;4447257;32;20267;-51
2022/01/20 12:06:19;;;;;;;37.97;19.93;;;;;;;;;;4442404;32;20236;-53
2022/01/20 12:08:54;;;;;;;35.07;18.33;;;;;;;;;;4447276;32;20823;-52
2022/01/20 12:11:20;;;;;;;33.60;19.00;;;;;;;;;;4442727;32;20723;-53
2022/01/20 12:13:51;;;;;;;33.97;19.30;;;;;;;;;;4445195;32;20255;-52
2022/01/20 12:16:24;;;;;;;45.43;23.87;;;;;;;;;;4441435;32;20238;-52
2022/01/20 12:18:57;;;;;;;44.57;21.73;;;;;;;;;;4439731;32;20314;-51
2022/01/20 12:21:24;;;;;;;34.87;19.37;;;;;;;;;;4441673;32;20240;-52
2022/01/20 12:23:52;;;;;;;36.83;19.13;;;;;;;;;;4442824;32;20333;-54
2022/01/20 12:26:19;;;;;;;72.40;36.93;;;;;;;;;;4433172;32;20264;-52
2022/01/20 12:28:45;;;;;;;41.93;22.90;;;;;;;;;;4443405;32;20252;-52
2022/01/20 12:31:13;;;;;;;44.33;22.00;;;;;;;;;;4437314;32;20319;-52
2022/01/20 12:33:43;;;;;;;41.43;23.90;;;;;;;;;;4436161;32;20224;-50
2022/01/20 12:36:14;;;;;;;42.00;22.80;;;;;;;;;;4438355;32;20687;-52
2022/01/20 12:38:41;;;;;;;31.50;19.87;;;;;;;;;;4434557;32;20314;-52
2022/01/20 12:41:11;;;;;;;22.27;16.13;;;;;;;;;;4434514;32;20332;-52
2022/01/20 12:43:48;;;;;;;27.37;15.70;;;;;;;;;;4437571;32;20335;-51
2022/01/20 12:46:18;;;;;;;31.03;17.50;;;;;;;;;;4428935;32;20321;-53
2022/01/20 12:48:56;;;;;;;46.87;24.77;;;;;;;;;;4435673;32;20288;-52
2022/01/20 12:51:32;;;;;;;43.50;21.13;;;;;;;;;;4432375;32;20599;-53
2022/01/20 12:54:08;;;;;;;78.97;39.70;;;;;;;;;;4432385;32;20228;-52
2022/01/20 12:56:41;;;;;;;43.63;21.73;;;;;;;;;;4429605;32;20390;-52
2022/01/20 12:59:07;;;;;;;25.97;15.07;;;;;;;;;;4447554;32;20294;-53
2022/01/20 13:01:41;;;;;;;93.03;40.17;;;;;;;;;;4438393;32;20314;-52
2022/01/20 13:04:09;;;;;;;49.43;25.80;;;;;;;;;;4426759;32;20718;-53
2022/01/20 13:06:35;;;;;;;37.47;20.73;;;;;;;;;;4437210;32;20244;-52
2022/01/20 13:09:08;;;;;;;21.17;14.00;;;;;;;;;;4447471;32;20331;-52
2022/01/20 13:11:49;;;;;;;20.47;13.23;;;;;;;;;;4444110;32;20236;-52
2022/01/20 13:14:15;;;;;;;23.37;12.90;;;;;;;;;;4445906;32;20399;-53
2022/01/20 13:16:51;;;;;;;53.43;29.43;;;;;;;;;;4437929;32;20295;-52
2022/01/20 13:19:17;;;;;;;48.07;26.73;;;;;;;;;;4443150;32;20251;-53
2022/01/20 13:21:53;;;;;;;28.00;15.83;;;;;;;;;;4444130;32;20322;-52
2022/01/20 13:24:29;;;;;;;26.13;12.23;;;;;;;;;;4446541;32;20220;-53
2022/01/20 13:26:57;;;;;;;15.60;9.87;;;;;;;;;;4444497;32;20204;-52
2022/01/20 13:29:23;;;;;;;27.43;12.33;;;;;;;;;;4447031;32;20264;-53
2022/01/20 13:31:58;;;;;;;24.83;11.70;;;;;;;;;;4443463;32;20236;-54
2022/01/20 13:34:23;;;;;;;86.00;30.63;;;;;;;;;;4439410;32;20629;-52
2022/01/20 13:36:53;;;;;;;84.27;32.13;;;;;;;;;;4438823;32;20324;-52
2022/01/20 13:39:37;;;;;;;334.87;93.60;;;;;;;;;;4447598;32;20244;-51
2022/01/20 13:45:15;;;;;;;47.60;21.80;;;;;;;;;;4447249;32;20354;-52
2022/01/20 13:47:55;;;;;;;33.90;17.87;;;;;;;;;;4444125;32;20368;-51
2022/01/20 13:50:35;;;;;;;37.70;19.47;;;;;;;;;;4446460;32;20197;-52
2022/01/20 13:53:12;;;;;;;68.87;31.87;;;;;;;;;;4443569;32;20241;-51
2022/01/20 13:55:39;;;;;;;51.40;25.57;;;;;;;;;;4421483;32;20271;-52
2022/01/20 13:58:06;;;;;;;43.60;21.00;;;;;;;;;;4433344;32;20303;-52
2022/01/20 14:00:35;;;;;;;38.40;21.33;;;;;;;;;;4443718;32;20667;-54
2022/01/20 14:03:05;;;;;;;49.43;23.80;;;;;;;;;;4431755;32;20281;-53
2022/01/20 14:05:33;;;;;;;45.63;23.83;;;;;;;;;;4439901;32;20677;-52
2022/01/20 14:08:00;;;;;;;46.67;25.90;;;;;;;;;;4431687;32;20347;-52
2022/01/20 14:10:26;;;;;;;44.20;21.37;;;;;;;;;;4418645;32;20234;-53
2022/01/20 14:12:52;;;;;;;71.70;30.83;;;;;;;;;;4439206;32;20340;-52
2022/01/20 14:15:19;;;;;;;26.57;14.27;;;;;;;;;;4446953;32;20295;-53
2022/01/20 14:17:51;;;;;;;15.57;8.07;;;;;;;;;;4433388;32;20442;-54
2022/01/20 14:20:18;;;;;;;14.37;7.70;;;;;;;;;;4431992;32;20236;-52
2022/01/20 14:22:43;;;;;;;10.77;5.13;;;;;;;;;;4436557;32;20393;-53
2022/01/20 14:25:11;;;;;;;12.90;6.47;;;;;;;;;;4447451;32;20707;-55
2022/01/20 14:27:36;;;;;;;14.40;8.30;;;;;;;;;;4432090;32;20232;-53
2022/01/20 14:30:07;;;;;;;10.63;6.10;;;;;;;;;;4432125;32;20324;-54
2022/01/20 14:32:32;;;;;;;10.23;5.63;;;;;;;;;;4430976;32;20310;-52
2022/01/20 14:34:58;;;;;;;11.20;7.23;;;;;;;;;;4432253;32;20720;-53
2022/01/20 14:37:23;;;;;;;14.37;8.43;;;;;;;;;;4431699;32;20348;-52
2022/01/20 14:39:49;;;;;;;16.77;9.90;;;;;;;;;;4431769;32;20854;-54
2022/01/20 14:42:15;;;;;;;16.27;8.70;;;;;;;;;;4440298;32;20229;-53
2022/01/20 14:44:42;;;;;;;24.43;13.30;;;;;;;;;;4449618;32;20726;-52
2022/01/20 14:47:09;;;;;;;22.33;9.73;;;;;;;;;;4438170;32;20205;-53
2022/01/20 14:49:35;;;;;;;30.10;12.93;;;;;;;;;;4436701;32;20588;-52
2022/01/20 14:52:03;;;;;;;31.13;16.03;;;;;;;;;;4447550;32;20296;-52
2022/01/20 14:54:28;;;;;;;34.93;17.93;;;;;;;;;;4443043;32;20521;-53
2022/01/20 14:56:54;;;;;;;42.87;19.27;;;;;;;;;;4444588;32;20275;-54
2022/01/20 14:59:20;;;;;;;37.77;20.30;;;;;;;;;;4447216;32;20727;-52
2022/01/20 15:01:46;;;;;;;44.53;19.37;;;;;;;;;;4425571;32;20368;-53
2022/01/20 15:04:12;;;;;;;32.77;18.30;;;;;;;;;;4438331;32;20232;-52
2022/01/20 15:06:38;;;;;;;27.93;15.80;;;;;;;;;;4440454;32;20276;-53
2022/01/20 15:09:04;;;;;;;30.13;14.83;;;;;;;;;;4434656;32;20220;-52
2022/01/20 15:11:31;;;;;;;31.63;15.97;;;;;;;;;;4434184;32;20299;-53
2022/01/20 15:13:56;;;;;;;28.40;13.20;;;;;;;;;;4445076;32;20237;-52
2022/01/20 15:16:22;;;;;;;29.33;15.07;;;;;;;;;;4441159;32;20306;-52
2022/01/20 15:18:47;;;;;;;31.27;16.60;;;;;;;;;;4448447;32;20644;-52
2022/01/20 15:21:14;;;;;;;28.30;15.80;;;;;;;;;;4448854;32;20358;-55
2022/01/20 15:23:40;;;;;;;25.87;13.07;;;;;;;;;;4448762;32;20759;-53
2022/01/20 15:26:08;;;;;;;20.07;11.80;;;;;;;;;;4442793;32;20357;-52